Aviation Digital Data Service (ADDS)

Output produced by METARs form (1203 UTC 24 February 2018)
found at http://www.aviationweather.gov/adds/metars/
 
OAIX 241158Z 03003KT 9000 BR SCT020 OVC030 09/05 A3008 RMK AO2A SLP151 60001 70016 T00870048 10088 20070 57005 $
TAF OAIX 240700Z 2407/2513 VRB06KT 8000 -RA BR FEW015 BKN030 610409 QNH3002INS 
     BECMG 2412/2413 VRB06KT 9999 NSW FEW020 BKN040 610409 QNH3003INS 
     BECMG 2418/2419 VRB03KT 6000 BR BKN040 BKN180 610409 QNH3013INS 
     BECMG 2422/2423 VRB06KT 4000 BR FEW040 SCT150 QNH3018INS 
     TEMPO 2500/2504 2800 BR 
     BECMG 2505/2506 VRB06KT 8000 BR FEW080 QNH3011INS 
     BECMG 2508/2509 VRB06KT 9999 NSW FEW120 QNH3009INS TX10/2410Z TN05/2502Z
       
OAHR 241155Z 22008KT 9999 BKN080 19/M12 Q1014 RMK A2996 BLU
TAF OAHR 241100Z 2412/2512 18010KT 9999 FEW060 BKN080 
     BECMG 2501/2503 17015G25KT 8000 FEW060 SCT080 
     BECMG 2505/2507 18025G35KT 3000 BLDU 
     TEMPO 2507/2512 19025G45KT 0800 DS
       
OAJL 241155Z 07002KT 9000 BR OVC060 14/10 A3008 RMK AO2A SLP177 6004 70007 T01390103 10149 20120 56006
TAF OAJL 240800Z 2408/2514 25006KT 8000 -SHRA BR SCT020 BKN040 610709 QNH3004INS 
     BECMG 2411/2412 VRB06KT 9999 VCSH FEW060 BKN080 610808 QNH2998INS 
     BECMG 2420/2421 30006KT 6000 BR SCT080 QNH3008INS 
     TEMPO 2421/2503 4000 BR 
     BECMG 2505/2506 VRB06KT 9999 NSW SCT200 QNH3019INS TX17/2410Z TN10/2502Z
       
OAKB 241150Z 35007KT 9999 -SHRA SCT010 OVC035 07/04 Q1019 NOSIG RMK A3010 BLU BLU
TAF OAKB 241105Z 2412/2512 VRB02KT 9999 FEW015 BKN030 OVC050 
     TEMPO 2412/2416 -SHRA SCT015 BKN025 OVC040 
     BECMG 2416/2418 3500 BR BKN040 BKN120 
     BECMG 2422/2424 1500 FEW050 SCT120 
     BECMG 2504/2506 6000 NSW 
     BECMG 2508/2510 CAVOK
       
OAKN 241055Z 26008G12KT 9999 SCT120 SCT240 20/05 A2995 RMK AO2A SLP111 Q1014 PA3277 DA4765
TAF OAKN 240700Z 2407/2513 VRB06KT 9999 FEW200 QNH2995INS 
     BECMG 2410/2411 26010G15KT 9999 FEW200 QNH2994INS 
     BECMG 2415/2416 VRB06KT 9999 FEW200 QNH2999INS 
     BECMG 2504/2505 08012KT 9999 SCT150 QNH3002INS 
     BECMG 2508/2509 16012G18KT 9999 FEW060 SCT100 BKN150 QNH2998INS 
     BECMG 2511/2512 18012G18KT 9999 VCSH FEW050 SCT080 BKN100 QNH2997INS TX22/2412Z TN09/2500Z
       
OAMS 241150Z 03003KT 9000 FEW085 SCT130 BKN250 14/06 Q1015 BLU+BLU
TAF OAMS 2412/2512 32012KT 9000 NSW SCT040 BKN080 BKN120 
     BECMG 2418/2420 06006KT 9999 NSW FEW060 BKN120 
     BECMG 2500/2502 VRB05KT 5000 FU SCT120 SCT180 
     TEMPO 2502/2505 VRB05KT 4000 FU SCT120 SCT180 
     BECMG 2503/2505 07008KT 9000 NSW FEW120